Cherokee, IA

8:46 AM CDT on May 21, 2018 (GMT -0500)
Cherokee Municipal

Weather History for KCKP - November, 2013

Change the Weather History Date:

Sunday, November 17, 2013

  Actual Average Record
Temperature  
Mean Temperature 44 °F -  
Max Temperature 53 °F 44 °F 71 °F (1953)
Min Temperature 34 °F 22 °F -8 °F (1959)
Degree Days  
Heating Degree Days 22    
Moisture  
Dew Point 35 °F    
Average Humidity 73    
Maximum Humidity 91    
Minimum Humidity 52    
Precipitation  
Precipitation 0.02 in - - ()
Sea Level Pressure  
Sea Level Pressure 29.61 in    
Wind  
Wind Speed 5 mph (NW)    
Max Wind Speed 20 mph    
Max Gust Speed 25 mph    
Visibility 10 miles    
Events Rain    
Averages and records for this station are not official NWS values.
T = Trace of Precipitation, MM = Missing Value Source: NWS Daily Summary

Daily Weather History Graph

Daily Weather History Graph

Search for Another Location

Airport or City:

Astronomy

Nov. 17, 2013 Rise Set
Actual Time 7:16 AM CST 4:57 PM CST
Civil Twilight 6:46 AM CST 5:27 PM CST
Nautical Twilight 6:11 AM CST 6:02 PM CST
Astronomical Twilight 5:38 AM CST 6:35 PM CST
Moon 5:15 PM CST (11/17) 7:11 AM CST (11/17)
Length of Visible Light 10h 41m
Length of Day
9h 40m
Full, 100% of the Moon is Illuminated
Nov 17
Full
Nov 25
Last Quarter
Dec 2
New
Dec 9
First Quarter
Dec 17
Full

Hourly Weather History & Observations

Time (CST) Temp. Windchill Dew Point Humidity Pressure Visibility Wind Dir Wind Speed Gust Speed Precip Events Conditions
12:15 AM 41.0 °F - 26.8 °F 57% 29.39 in 10.0 mi Calm Calm - N/A   Clear
12:35 AM 37.6 °F - 26.2 °F 64% 29.38 in 10.0 mi Calm Calm - N/A   Clear
12:55 AM 38.5 °F - 26.8 °F 63% 29.38 in 10.0 mi Calm Calm - N/A   Clear
1:15 AM 37.0 °F 34.5 °F 27.0 °F 67% 29.37 in 10.0 mi North 3.5 mph - N/A   Clear
1:35 AM 36.0 °F - 29.1 °F 76% 29.37 in 10.0 mi Calm Calm - N/A   Clear
1:55 AM 36.0 °F - 28.4 °F 74% 29.37 in 10.0 mi Calm Calm - N/A   Clear
2:15 AM 35.4 °F - 29.1 °F 78% 29.37 in 10.0 mi Calm Calm - N/A   Clear
2:35 AM 35.4 °F - 29.1 °F 78% 29.38 in 10.0 mi Calm Calm - N/A   Clear
2:55 AM 34.7 °F - 29.1 °F 80% 29.37 in 10.0 mi Calm Calm - N/A   Clear
3:15 AM 34.7 °F - 28.9 °F 79% 29.38 in 10.0 mi Calm Calm - N/A   Clear
3:35 AM 36.1 °F - 28.8 °F 75% 29.38 in 10.0 mi Calm Calm - N/A   Clear
3:55 AM 34.7 °F 31.8 °F 30.0 °F 83% 29.39 in 10.0 mi SSW 3.5 mph - N/A   Clear
4:15 AM 35.6 °F - 30.9 °F 83% 29.38 in 10.0 mi Calm Calm - N/A   Clear
4:35 AM 38.7 °F - 29.3 °F 69% 29.37 in 10.0 mi Calm Calm - N/A   Clear
4:55 AM 38.5 °F 35.0 °F 31.1 °F 75% 29.37 in 10.0 mi NE 4.6 mph - N/A   Clear
5:15 AM 40.8 °F - 32.0 °F 71% 29.38 in 10.0 mi Calm Calm - N/A   Clear
5:35 AM 43.3 °F 40.7 °F 33.6 °F 69% 29.40 in 10.0 mi NNW 4.6 mph - N/A   Mostly Cloudy
5:55 AM 43.7 °F 39.1 °F 35.1 °F 72% 29.39 in 10.0 mi North 8.1 mph - N/A   Mostly Cloudy
6:15 AM 43.7 °F 39.1 °F 36.0 °F 74% 29.40 in 10.0 mi NNW 8.1 mph - N/A   Drizzle
6:35 AM 43.5 °F - 37.6 °F 80% 29.41 in 10.0 mi Calm Calm - N/A Rain Light Rain
6:55 AM 42.8 °F 39.3 °F 38.1 °F 84% 29.41 in 10.0 mi East 5.8 mph - N/A Rain Light Rain
7:15 AM 41.5 °F 36.4 °F 36.9 °F 83% 29.42 in 10.0 mi SE 8.1 mph - 0.01 in Rain Light Rain
7:35 AM 40.8 °F - 37.4 °F 88% 29.43 in 10.0 mi Calm Calm - 0.02 in Rain Rain
7:55 AM 40.6 °F 37.5 °F 37.8 °F 89% 29.44 in 10.0 mi WNW 4.6 mph - 0.02 in Rain Rain
8:15 AM 41.0 °F 39.0 °F 38.3 °F 90% 29.46 in 10.0 mi SW 3.5 mph - N/A   Light Drizzle
8:35 AM 41.0 °F - 38.5 °F 91% 29.46 in 10.0 mi Calm Calm - N/A   Mostly Cloudy
8:55 AM 41.2 °F - 38.5 °F 90% 29.47 in 10.0 mi Calm Calm - N/A   Scattered Clouds
9:15 AM 42.8 °F - 40.1 °F 90% 29.47 in 10.0 mi Calm Calm - N/A   Clear
9:35 AM 42.8 °F 38.6 °F 39.9 °F 90% 29.48 in 7.0 mi NNW 6.9 mph - N/A   Mostly Cloudy
9:55 AM 43.2 °F 39.7 °F 40.3 °F 90% 29.49 in 7.0 mi NNW 5.8 mph - N/A   Mostly Cloudy
10:15 AM 44.1 °F 40.8 °F 41.4 °F 90% 29.51 in 5.0 mi NNW 5.8 mph - N/A   Mostly Cloudy
10:35 AM 43.9 °F 38.8 °F 41.0 °F 90% 29.52 in 5.0 mi NNW 9.2 mph - N/A   Mostly Cloudy
10:55 AM 44.6 °F 40.2 °F 41.4 °F 88% 29.53 in 5.0 mi NNW 8.1 mph - N/A   Mostly Cloudy
11:15 AM 45.5 °F 40.3 °F 41.4 °F 85% 29.54 in 7.0 mi NW 10.4 mph - N/A   Scattered Clouds
11:35 AM 47.5 °F - 41.7 °F 80% 29.54 in 10.0 mi NNW 9.2 mph - N/A   Clear
11:55 AM 48.4 °F - 40.6 °F 75% 29.55 in 10.0 mi NNW 8.1 mph - N/A   Scattered Clouds
12:15 PM 49.3 °F - 39.7 °F 70% 29.55 in 10.0 mi NNW 10.4 mph - N/A   Scattered Clouds
12:35 PM 50.5 °F - 39.2 °F 65% 29.55 in 10.0 mi NW 11.5 mph 18.4 mph N/A   Clear
12:55 PM 51.8 °F - 38.8 °F 61% 29.57 in 10.0 mi NW 13.8 mph 21.9 mph N/A   Scattered Clouds
1:15 PM 52.2 °F - 38.5 °F 60% 29.58 in 10.0 mi NNW 16.1 mph 23.0 mph N/A   Clear
1:35 PM 52.7 °F - 37.4 °F 56% 29.59 in 10.0 mi NW 16.1 mph 19.6 mph N/A   Clear
1:55 PM 53.1 °F - 36.0 °F 52% 29.60 in 10.0 mi NW 10.4 mph 24.2 mph N/A   Scattered Clouds
2:15 PM 52.5 °F - 36.5 °F 54% 29.62 in 10.0 mi NW 9.2 mph 23.0 mph N/A   Scattered Clouds
2:35 PM 52.9 °F - 35.6 °F 52% 29.64 in 10.0 mi WNW 19.6 mph 25.3 mph N/A   Mostly Cloudy
2:55 PM 52.7 °F - 36.1 °F 53% 29.66 in 10.0 mi WNW 15.0 mph 21.9 mph N/A   Mostly Cloudy
3:15 PM 52.5 °F - 36.3 °F 54% 29.67 in 10.0 mi WNW 15.0 mph 21.9 mph N/A   Scattered Clouds
3:35 PM 52.0 °F - 35.8 °F 54% 29.69 in 10.0 mi NW 15.0 mph 24.2 mph N/A   Clear
3:55 PM 50.7 °F - 36.0 °F 57% 29.71 in 10.0 mi WNW 16.1 mph 21.9 mph N/A   Clear
4:15 PM 49.6 °F - 36.7 °F 61% 29.73 in 10.0 mi WNW 11.5 mph 21.9 mph N/A   Clear
4:35 PM 48.6 °F - 36.5 °F 63% 29.74 in 10.0 mi WNW 10.4 mph 17.3 mph N/A   Clear
4:55 PM 47.3 °F - 36.1 °F 65% 29.76 in 10.0 mi WNW 9.2 mph 21.9 mph N/A   Clear
5:15 PM 46.8 °F - 36.1 °F 67% 29.77 in 10.0 mi WNW 9.2 mph - N/A   Clear
5:35 PM 46.0 °F 41.4 °F 36.0 °F 68% 29.79 in 10.0 mi WNW 9.2 mph - N/A   Clear
5:55 PM 45.9 °F 41.2 °F 36.5 °F 70% 29.81 in 10.0 mi WNW 9.2 mph - N/A   Mostly Cloudy
6:15 PM 46.0 °F 41.9 °F 36.9 °F 70% 29.82 in 10.0 mi WNW 8.1 mph - N/A   Overcast
6:35 PM 46.4 °F 44.3 °F 36.9 °F 69% 29.82 in 10.0 mi WNW 4.6 mph - N/A   Overcast
6:55 PM 45.5 °F 41.3 °F 37.4 °F 73% 29.84 in 10.0 mi West 8.1 mph - N/A   Mostly Cloudy
7:15 PM 45.9 °F 42.3 °F 37.6 °F 73% 29.85 in 10.0 mi WNW 6.9 mph - N/A   Overcast
7:35 PM 46.6 °F - 37.0 °F 69% 29.87 in 10.0 mi NW 9.2 mph 18.4 mph N/A   Overcast
7:55 PM 46.6 °F - 35.8 °F 66% 29.88 in 10.0 mi NW 10.4 mph 17.3 mph N/A   Overcast
8:15 PM 46.2 °F 41.7 °F 34.5 °F 64% 29.89 in 10.0 mi WNW 9.2 mph - N/A   Overcast
8:35 PM 44.8 °F 39.9 °F 34.3 °F 67% 29.90 in 10.0 mi WNW 9.2 mph - N/A   Scattered Clouds
8:55 PM 43.2 °F 37.9 °F 34.2 °F 71% 29.91 in 10.0 mi WNW 9.2 mph - N/A   Clear
9:15 PM 41.9 °F 36.3 °F 34.3 °F 75% 29.92 in 10.0 mi West 9.2 mph - N/A   Scattered Clouds
9:35 PM 41.2 °F 36.6 °F 34.5 °F 77% 29.92 in 10.0 mi West 6.9 mph - N/A   Scattered Clouds
9:55 PM 40.8 °F 35.6 °F 34.2 °F 77% 29.94 in 10.0 mi West 8.1 mph - N/A   Clear
10:15 PM 40.3 °F 35.5 °F 33.8 °F 78% 29.94 in 10.0 mi West 6.9 mph - N/A   Clear
10:35 PM 39.7 °F 33.2 °F 33.8 °F 79% 29.95 in 10.0 mi West 10.4 mph 16.1 mph N/A   Clear
10:55 PM 40.1 °F 32.7 °F 33.8 °F 78% 29.96 in 10.0 mi WNW 12.7 mph 17.3 mph N/A   Clear
11:15 PM 40.1 °F 32.7 °F 33.1 °F 76% 29.95 in 10.0 mi WNW 12.7 mph 18.4 mph N/A   Clear
11:35 PM 39.4 °F 31.8 °F 32.5 °F 76% 29.97 in 10.0 mi WNW 12.7 mph 18.4 mph N/A   Clear
11:55 PM 38.7 °F 32.4 °F 32.2 °F 78% 29.97 in 10.0 mi WNW 9.2 mph - N/A   Clear